createdAt,value
2018-12-25T00:00:31.801Z,1.30
2018-12-25T00:02:59.116Z,1.30
2018-12-25T00:05:26.557Z,1.40
2018-12-25T00:07:54.012Z,1.40
2018-12-25T00:10:21.392Z,1.50
2018-12-25T00:12:48.611Z,1.50
2018-12-25T00:15:15.886Z,1.50
2018-12-25T00:17:43.348Z,1.60
2018-12-25T00:20:10.686Z,1.60
2018-12-25T00:22:37.960Z,1.60
2018-12-25T00:25:05.292Z,1.70
2018-12-25T00:27:32.610Z,1.70
2018-12-25T00:29:59.964Z,1.70
2018-12-25T00:32:27.396Z,1.80
2018-12-25T00:34:54.948Z,1.80
2018-12-25T00:37:22.458Z,1.80
2018-12-25T00:39:49.808Z,1.90
2018-12-25T00:42:17.249Z,1.90
2018-12-25T00:44:44.354Z,1.90
2018-12-25T00:47:11.603Z,2.00
2018-12-25T00:49:38.824Z,2.00
2018-12-25T00:52:06.196Z,2.00
2018-12-25T00:54:33.526Z,2.10
2018-12-25T00:57:01.176Z,2.10
2018-12-25T00:59:28.395Z,2.10
2018-12-25T01:01:55.709Z,2.10
2018-12-25T01:04:23.042Z,2.10
2018-12-25T01:06:50.407Z,2.10
2018-12-25T01:09:17.747Z,2.10
2018-12-25T01:11:45.362Z,2.10
2018-12-25T01:14:12.620Z,2.20
2018-12-25T01:16:39.981Z,2.20
2018-12-25T01:19:07.461Z,2.20
2018-12-25T01:21:34.793Z,2.20
2018-12-25T01:24:01.999Z,2.20
2018-12-25T01:26:29.359Z,2.20
2018-12-25T01:28:56.683Z,2.20
2018-12-25T01:31:23.968Z,2.20
2018-12-25T01:33:51.303Z,2.20
2018-12-25T01:36:18.629Z,2.30
2018-12-25T01:38:46.078Z,2.30
2018-12-25T01:41:13.438Z,2.30
2018-12-25T01:43:40.884Z,2.30
2018-12-25T01:46:08.419Z,2.30
2018-12-25T01:48:36.565Z,2.30
2018-12-25T01:51:03.863Z,2.30
2018-12-25T01:53:31.216Z,2.40
2018-12-25T01:55:58.527Z,2.30
2018-12-25T01:58:25.798Z,2.30
2018-12-25T02:00:53.125Z,2.40
2018-12-25T02:03:20.496Z,2.40
2018-12-25T02:05:47.853Z,2.40
2018-12-25T02:08:15.267Z,2.40
2018-12-25T02:10:42.621Z,2.40
2018-12-25T02:13:10.300Z,2.50
2018-12-25T02:15:37.673Z,2.40
2018-12-25T02:18:04.990Z,2.50
2018-12-25T02:20:32.294Z,2.50
2018-12-25T02:22:59.598Z,2.50
2018-12-25T02:25:27.015Z,2.50
2018-12-25T02:27:54.439Z,2.60
2018-12-25T02:30:21.792Z,2.60
2018-12-25T02:32:48.997Z,2.60
2018-12-25T02:35:16.355Z,2.60
2018-12-25T02:37:43.578Z,2.70
2018-12-25T02:40:10.887Z,2.70
2018-12-25T02:42:38.258Z,2.70
2018-12-25T02:45:05.762Z,2.70
2018-12-25T02:47:33.128Z,2.80
2018-12-25T02:50:00.359Z,2.80
2018-12-25T02:52:27.798Z,2.80
2018-12-25T02:54:55.050Z,2.80
2018-12-25T02:57:22.515Z,2.90
2018-12-25T02:59:49.836Z,2.90
2018-12-25T03:02:17.199Z,2.90
2018-12-25T03:04:44.560Z,2.90
2018-12-25T03:07:12.008Z,2.90
2018-12-25T03:09:39.265Z,3.00
2018-12-25T03:12:06.729Z,3.00
2018-12-25T03:14:34.110Z,3.00
2018-12-25T03:17:01.464Z,3.00
2018-12-25T03:19:28.729Z,3.10
2018-12-25T03:21:56.060Z,3.10
2018-12-25T03:24:23.416Z,3.10
2018-12-25T03:26:50.922Z,3.10
2018-12-25T03:29:18.273Z,3.10
2018-12-25T03:31:45.634Z,3.10
2018-12-25T03:34:12.952Z,3.10
2018-12-25T03:36:40.325Z,3.10
2018-12-25T03:39:07.688Z,3.20
2018-12-25T03:41:35.107Z,3.20
2018-12-25T03:44:02.361Z,3.20
2018-12-25T03:46:29.701Z,3.30
2018-12-25T03:48:56.915Z,3.30
2018-12-25T03:51:24.060Z,3.40
2018-12-25T03:53:51.392Z,3.40
2018-12-25T03:56:18.740Z,3.40
2018-12-25T03:58:46.121Z,3.50
2018-12-25T04:01:13.449Z,3.50
2018-12-25T04:03:40.930Z,3.50
2018-12-25T04:06:08.327Z,3.50
2018-12-25T04:08:35.589Z,3.50
2018-12-25T04:11:03.012Z,3.50
2018-12-25T04:13:30.308Z,3.50
2018-12-25T04:15:57.631Z,3.60
2018-12-25T04:18:24.986Z,3.50
2018-12-25T04:20:52.224Z,3.60
2018-12-25T04:23:19.584Z,3.60
2018-12-25T04:25:46.799Z,3.60
2018-12-25T04:28:14.019Z,3.60
2018-12-25T04:30:41.276Z,3.60
2018-12-25T04:33:08.606Z,3.70
2018-12-25T04:35:35.945Z,3.70
2018-12-25T04:38:03.268Z,3.70
2018-12-25T04:40:30.608Z,3.80
2018-12-25T04:42:57.857Z,3.80
2018-12-25T04:45:25.174Z,3.80
2018-12-25T04:47:52.534Z,3.80
2018-12-25T04:50:29.015Z,3.80
2018-12-25T04:52:48.932Z,3.80
2018-12-25T04:55:16.264Z,3.80
2018-12-25T04:57:43.545Z,3.80
2018-12-25T05:00:10.873Z,3.80
2018-12-25T05:02:38.256Z,3.80
2018-12-25T05:05:05.615Z,3.80
2018-12-25T05:07:32.827Z,3.80
2018-12-25T05:10:00.303Z,3.80
2018-12-25T05:12:27.499Z,3.90
2018-12-25T05:14:54.847Z,3.90
2018-12-25T05:17:22.192Z,3.90
2018-12-25T05:19:49.549Z,4.00
2018-12-25T05:22:36.415Z,3.90
2018-12-25T05:25:03.723Z,4.00
2018-12-25T05:27:30.935Z,4.00
2018-12-25T05:29:58.171Z,4.10
2018-12-25T05:32:25.387Z,4.10
2018-12-25T05:34:52.839Z,4.10
2018-12-25T05:37:20.177Z,4.00
2018-12-25T05:39:47.311Z,4.10
2018-12-25T05:42:14.559Z,4.10
2018-12-25T05:44:43.396Z,4.10
2018-12-25T05:47:10.811Z,4.10
2018-12-25T05:49:38.064Z,4.10
2018-12-25T05:52:05.284Z,4.10
2018-12-25T05:54:32.733Z,4.10
2018-12-25T05:56:59.959Z,4.10
2018-12-25T05:59:27.397Z,4.10
2018-12-25T06:01:54.862Z,4.00
2018-12-25T06:04:22.196Z,4.10
2018-12-25T06:06:49.486Z,4.00
2018-12-25T06:09:16.723Z,4.10
2018-12-25T06:11:44.053Z,4.10
2018-12-25T06:14:11.412Z,4.10
2018-12-25T06:16:38.632Z,4.00
2018-12-25T06:19:06.022Z,4.00
2018-12-25T06:21:33.370Z,4.00
2018-12-25T06:24:00.592Z,4.00
2018-12-25T06:26:27.855Z,4.10
2018-12-25T06:28:55.153Z,4.10
2018-12-25T06:31:22.456Z,4.10
2018-12-25T06:33:49.889Z,4.10
2018-12-25T06:36:17.032Z,4.10
2018-12-25T06:38:44.427Z,4.10
2018-12-25T06:41:11.755Z,4.10
2018-12-25T06:43:39.106Z,4.10
2018-12-25T06:46:06.450Z,4.10
2018-12-25T06:48:33.699Z,4.10
2018-12-25T06:51:03.938Z,4.10
2018-12-25T06:53:30.055Z,4.20
2018-12-25T06:55:57.415Z,4.20
2018-12-25T06:58:24.645Z,4.10
2018-12-25T07:00:51.973Z,4.10
2018-12-25T07:03:19.223Z,4.10
2018-12-25T07:05:46.546Z,4.10
2018-12-25T07:08:13.776Z,4.10
2018-12-25T07:10:41.156Z,4.10
2018-12-25T07:13:08.941Z,4.10
2018-12-25T07:15:36.293Z,4.20
2018-12-25T07:18:03.524Z,4.20
2018-12-25T07:20:30.878Z,4.20
2018-12-25T07:22:58.240Z,4.20
2018-12-25T07:25:25.578Z,4.20
2018-12-25T07:27:53.035Z,4.20
2018-12-25T07:30:20.271Z,4.20
2018-12-25T07:32:47.575Z,4.10
2018-12-25T07:35:15.021Z,4.10
2018-12-25T07:37:42.356Z,4.10
2018-12-25T07:40:09.710Z,4.10
2018-12-25T07:42:37.186Z,4.10
2018-12-25T07:45:04.565Z,4.20
2018-12-25T07:47:31.792Z,4.10
2018-12-25T07:49:59.150Z,4.10
2018-12-25T07:52:26.892Z,4.10
2018-12-25T07:54:54.188Z,4.10
2018-12-25T07:57:21.530Z,4.10
2018-12-25T07:59:49.071Z,4.10
2018-12-25T08:02:16.192Z,4.00
2018-12-25T08:04:43.464Z,4.10
2018-12-25T08:07:10.675Z,4.10
2018-12-25T08:09:37.958Z,4.10
2018-12-25T08:12:05.185Z,4.10
2018-12-25T08:14:32.500Z,4.20
2018-12-25T08:16:59.855Z,4.20
2018-12-25T08:19:27.108Z,4.20
2018-12-25T08:21:54.581Z,4.20
2018-12-25T08:24:21.897Z,4.20
2018-12-25T08:26:49.103Z,4.20
2018-12-25T08:29:16.402Z,4.20
2018-12-25T08:31:43.589Z,4.20
2018-12-25T08:34:11.036Z,4.20
2018-12-25T08:36:38.576Z,4.20
2018-12-25T08:39:06.552Z,4.20
2018-12-25T08:41:33.896Z,4.20
2018-12-25T08:44:01.352Z,4.20
2018-12-25T08:46:28.867Z,4.30
2018-12-25T08:48:56.116Z,4.30
2018-12-25T08:51:23.316Z,4.30
2018-12-25T08:53:50.852Z,4.30
2018-12-25T08:56:18.112Z,4.30
2018-12-25T08:58:45.316Z,4.30
2018-12-25T09:01:12.887Z,4.30
2018-12-25T09:03:40.246Z,4.30
2018-12-25T09:06:07.599Z,4.30
2018-12-25T09:08:35.241Z,4.30
2018-12-25T09:11:02.551Z,4.30
2018-12-25T09:13:29.918Z,4.40
2018-12-25T09:15:57.484Z,4.40
2018-12-25T09:18:24.883Z,4.40
2018-12-25T09:20:51.916Z,4.50
2018-12-25T09:23:19.160Z,4.50
2018-12-25T09:25:46.521Z,4.40
2018-12-25T09:28:13.765Z,4.40
2018-12-25T09:30:41.112Z,4.50
2018-12-25T09:33:08.453Z,4.60
2018-12-25T09:35:35.887Z,4.60
2018-12-25T09:38:03.215Z,4.60
2018-12-25T09:40:30.465Z,4.60
2018-12-25T09:42:57.600Z,4.60
2018-12-25T09:45:25.035Z,4.60
2018-12-25T09:47:52.362Z,4.60
2018-12-25T09:50:19.611Z,4.60
2018-12-25T09:52:46.630Z,4.60
2018-12-25T09:55:13.961Z,4.60
2018-12-25T09:57:41.288Z,4.60
2018-12-25T10:00:08.530Z,4.60
2018-12-25T10:02:48.424Z,4.60
2018-12-25T10:05:15.667Z,4.60
2018-12-25T10:07:42.787Z,4.60
2018-12-25T10:10:09.946Z,4.60
2018-12-25T10:12:37.419Z,4.60
2018-12-25T10:15:05.141Z,4.60
2018-12-25T10:17:32.451Z,4.50
2018-12-25T10:19:59.699Z,4.60
2018-12-25T10:22:26.942Z,4.60
2018-12-25T10:24:54.303Z,4.60
2018-12-25T10:27:21.681Z,4.60
2018-12-25T10:29:48.986Z,4.60
2018-12-25T10:32:16.210Z,4.60
2018-12-25T10:34:43.561Z,4.60
2018-12-25T10:37:10.904Z,4.70
2018-12-25T10:39:38.164Z,4.80
2018-12-25T10:42:05.592Z,4.70
2018-12-25T10:44:32.960Z,4.80
2018-12-25T10:47:00.334Z,4.70
2018-12-25T10:49:27.656Z,4.70
2018-12-25T10:51:54.908Z,4.70
2018-12-25T10:54:22.166Z,4.70
2018-12-25T10:56:49.501Z,4.70
2018-12-25T10:59:17.456Z,4.70
2018-12-25T11:01:44.847Z,4.70
2018-12-25T11:04:12.220Z,4.70
2018-12-25T11:06:39.552Z,4.70
2018-12-25T11:09:06.901Z,4.70
2018-12-25T11:11:34.240Z,4.70
2018-12-25T11:14:01.588Z,4.70
2018-12-25T11:16:28.939Z,4.70
2018-12-25T11:18:56.096Z,4.70
2018-12-25T11:21:23.439Z,4.60
2018-12-25T11:23:50.867Z,4.60
2018-12-25T11:26:18.215Z,4.70
2018-12-25T11:28:45.359Z,4.60
2018-12-25T11:31:12.847Z,4.70
2018-12-25T11:33:40.182Z,4.70
2018-12-25T11:36:07.529Z,4.70
2018-12-25T11:38:34.783Z,4.80
2018-12-25T11:41:02.008Z,4.80
2018-12-25T11:43:29.258Z,4.90
2018-12-25T11:45:56.590Z,5.00
2018-12-25T11:48:23.839Z,5.00
2018-12-25T11:50:51.183Z,5.00
2018-12-25T11:53:18.523Z,4.90
2018-12-25T11:55:45.796Z,4.90
2018-12-25T11:58:12.908Z,4.90
2018-12-25T12:00:40.339Z,4.90
2018-12-25T12:03:07.726Z,4.90
2018-12-25T12:05:35.044Z,4.90
2018-12-25T12:08:02.291Z,4.90
2018-12-25T12:10:29.536Z,4.90
2018-12-25T12:12:56.646Z,4.90
2018-12-25T12:15:24.008Z,4.90
2018-12-25T12:17:51.665Z,4.90
2018-12-25T12:20:19.196Z,4.90
2018-12-25T12:22:46.579Z,4.90
2018-12-25T12:25:13.820Z,4.80
2018-12-25T12:27:41.155Z,4.80
2018-12-25T12:30:08.670Z,4.80
2018-12-25T12:32:35.986Z,4.70
2018-12-25T12:35:03.332Z,4.80
2018-12-25T12:37:30.764Z,4.80
2018-12-25T12:39:58.135Z,4.80
2018-12-25T12:42:25.568Z,4.70
2018-12-25T12:44:52.919Z,4.70
2018-12-25T12:47:20.227Z,4.60
2018-12-25T12:49:47.556Z,4.60
2018-12-25T12:52:14.843Z,4.60
2018-12-25T12:54:42.259Z,4.50
2018-12-25T12:57:09.484Z,4.50
2018-12-25T12:59:36.842Z,4.50
2018-12-25T13:02:04.069Z,4.40
2018-12-25T13:04:31.380Z,4.40
2018-12-25T13:06:58.644Z,4.40
2018-12-25T13:09:26.063Z,4.40
2018-12-25T13:11:53.330Z,4.30
2018-12-25T13:14:20.664Z,4.30
2018-12-25T13:16:47.897Z,4.30
2018-12-25T13:19:15.234Z,4.30
2018-12-25T13:21:42.642Z,4.30
2018-12-25T13:24:09.991Z,4.30
2018-12-25T13:26:37.220Z,4.20
2018-12-25T13:29:04.544Z,4.20
2018-12-25T13:31:31.881Z,4.20
2018-12-25T13:33:59.270Z,4.10
2018-12-25T13:36:26.532Z,4.10
2018-12-25T13:38:53.940Z,4.00
2018-12-25T13:41:21.351Z,4.10
2018-12-25T13:43:48.640Z,4.00
2018-12-25T13:46:15.959Z,4.00
2018-12-25T13:48:43.382Z,4.00
2018-12-25T13:51:10.741Z,4.00
2018-12-25T13:53:38.175Z,3.90
2018-12-25T13:56:05.507Z,3.90
2018-12-25T13:58:33.146Z,3.90
2018-12-25T14:01:00.512Z,3.90
2018-12-25T14:03:27.835Z,4.00
2018-12-25T14:05:55.179Z,4.00
2018-12-25T14:08:22.423Z,4.00
2018-12-25T14:10:49.772Z,4.00
2018-12-25T14:13:17.104Z,4.00
2018-12-25T14:15:44.327Z,4.00
2018-12-25T14:18:11.561Z,4.00
2018-12-25T14:20:39.010Z,4.00
2018-12-25T14:23:11.191Z,4.00
2018-12-25T14:25:35.511Z,4.00
2018-12-25T14:28:02.885Z,4.00
2018-12-25T14:30:30.235Z,4.00
2018-12-25T14:32:57.471Z,4.00
2018-12-25T14:35:24.811Z,3.90
2018-12-25T14:37:52.123Z,3.90
2018-12-25T14:40:19.281Z,3.80
2018-12-25T14:42:46.814Z,3.70
2018-12-25T14:45:14.048Z,3.70
2018-12-25T14:47:41.308Z,3.50
2018-12-25T14:50:08.743Z,3.50
2018-12-25T14:52:35.987Z,3.40
2018-12-25T14:55:03.251Z,3.30
2018-12-25T14:57:30.476Z,3.20
2018-12-25T14:59:57.843Z,3.20
2018-12-25T15:02:25.203Z,3.20
2018-12-25T15:04:52.461Z,3.10
2018-12-25T15:07:19.820Z,3.10
2018-12-25T15:09:47.187Z,3.10
2018-12-25T15:12:14.412Z,3.00
2018-12-25T15:14:41.444Z,2.90
2018-12-25T15:17:08.663Z,2.90
2018-12-25T15:19:36.019Z,2.90
2018-12-25T15:22:03.364Z,2.90
2018-12-25T15:24:30.796Z,2.80
2018-12-25T15:26:58.239Z,2.80
2018-12-25T15:29:26.790Z,2.80
2018-12-25T15:31:55.359Z,2.80
2018-12-25T15:34:22.875Z,2.70
2018-12-25T15:36:50.264Z,2.70
2018-12-25T15:39:17.515Z,2.70
2018-12-25T15:41:44.776Z,2.60
2018-12-25T15:44:12.095Z,2.60
2018-12-25T15:46:39.444Z,2.60
2018-12-25T15:49:06.802Z,2.50
2018-12-25T15:51:34.117Z,2.50
2018-12-25T15:54:01.772Z,2.50
2018-12-25T15:56:29.096Z,2.40
2018-12-25T15:58:56.423Z,2.40
2018-12-25T16:01:23.710Z,2.40
2018-12-25T16:03:51.039Z,2.30
2018-12-25T16:06:18.413Z,2.30
2018-12-25T16:08:45.728Z,2.30
2018-12-25T16:11:13.085Z,2.30
2018-12-25T16:13:40.447Z,2.30
2018-12-25T16:16:07.796Z,2.20
2018-12-25T16:18:35.181Z,2.20
2018-12-25T16:21:02.821Z,2.20
2018-12-25T16:23:30.049Z,2.10
2018-12-25T16:25:57.376Z,2.10
2018-12-25T16:28:24.636Z,2.10
2018-12-25T16:30:51.847Z,2.10
2018-12-25T16:33:19.185Z,2.10
2018-12-25T16:35:46.560Z,2.00
2018-12-25T16:38:13.888Z,1.90
2018-12-25T16:40:41.432Z,1.90
2018-12-25T16:43:08.743Z,1.90
2018-12-25T16:45:36.024Z,1.90
2018-12-25T16:48:03.398Z,1.90
2018-12-25T16:50:30.716Z,1.90
2018-12-25T16:52:58.037Z,1.80
2018-12-25T16:55:25.400Z,1.80
2018-12-25T16:57:52.648Z,1.80
2018-12-25T17:00:19.890Z,1.80
2018-12-25T17:02:47.329Z,1.80
2018-12-25T17:05:14.612Z,1.90
2018-12-25T17:07:41.963Z,1.90
2018-12-25T17:10:09.380Z,1.90
2018-12-25T17:12:37.860Z,1.80
2018-12-25T17:15:05.151Z,1.80
2018-12-25T17:17:32.381Z,1.90
2018-12-25T17:19:59.604Z,2.00
2018-12-25T17:22:26.959Z,1.90
2018-12-25T17:24:54.359Z,2.00
2018-12-25T17:27:21.689Z,1.90
2018-12-25T17:29:49.026Z,1.90
2018-12-25T17:32:16.189Z,1.90
2018-12-25T17:34:43.607Z,1.90
2018-12-25T17:37:11.063Z,1.90
2018-12-25T17:39:38.374Z,2.00
2018-12-25T17:42:05.621Z,2.00
2018-12-25T17:44:52.604Z,2.00
2018-12-25T17:47:23.072Z,1.90
2018-12-25T17:49:56.563Z,2.00
2018-12-25T17:52:19.989Z,2.00
2018-12-25T17:54:47.410Z,2.00
2018-12-25T17:57:14.672Z,2.00
2018-12-25T17:59:41.915Z,2.00
2018-12-25T18:02:09.238Z,2.00
2018-12-25T18:04:36.605Z,2.10
2018-12-25T18:07:03.917Z,2.10
2018-12-25T18:09:31.260Z,2.10
2018-12-25T18:11:58.603Z,2.10
2018-12-25T18:14:26.040Z,2.10
2018-12-25T18:16:53.367Z,2.10
2018-12-25T18:19:20.828Z,2.10
2018-12-25T18:21:48.170Z,2.10
2018-12-25T18:24:19.339Z,2.10
2018-12-25T18:26:44.776Z,2.10
2018-12-25T18:29:12.247Z,2.10
2018-12-25T18:31:39.599Z,2.10
2018-12-25T18:34:06.981Z,2.10
2018-12-25T18:36:34.584Z,2.10
2018-12-25T18:39:02.964Z,2.20
2018-12-25T18:41:30.315Z,2.10
2018-12-25T18:43:57.447Z,2.10
2018-12-25T18:46:24.821Z,2.10
2018-12-25T18:48:52.186Z,2.10
2018-12-25T18:51:19.520Z,2.20
2018-12-25T18:53:46.902Z,2.10
2018-12-25T18:56:14.219Z,2.10
2018-12-25T18:58:41.339Z,2.00
2018-12-25T19:01:09.598Z,1.80
2018-12-25T19:03:36.971Z,1.70
2018-12-25T19:06:04.203Z,1.60
2018-12-25T19:08:31.438Z,1.60
2018-12-25T19:10:58.999Z,1.70
2018-12-25T19:13:26.319Z,1.80
2018-12-25T19:15:55.705Z,2.00
2018-12-25T19:18:25.085Z,1.90
2018-12-25T19:20:52.825Z,2.00
2018-12-25T19:23:21.216Z,2.00
2018-12-25T19:25:51.396Z,2.10
2018-12-25T19:28:18.469Z,2.00
2018-12-25T19:30:45.975Z,1.90
2018-12-25T19:33:13.231Z,1.80
2018-12-25T19:35:40.590Z,1.60
2018-12-25T19:38:07.971Z,1.40
2018-12-25T19:40:35.179Z,1.20
2018-12-25T19:43:02.589Z,1.10
2018-12-25T19:45:31.471Z,1.00
2018-12-25T19:47:58.880Z,1.00
2018-12-25T19:50:26.118Z,0.90
2018-12-25T19:52:53.642Z,0.80
2018-12-25T19:55:20.975Z,0.80
2018-12-25T19:57:48.234Z,0.80
2018-12-25T20:00:15.586Z,0.90
2018-12-25T20:02:46.436Z,0.90
2018-12-25T20:06:03.693Z,0.80
2018-12-25T20:08:58.123Z,0.70
2018-12-25T20:12:11.051Z,0.70
2018-12-25T20:15:22.258Z,0.60
2018-12-25T20:18:30.283Z,0.60
2018-12-25T20:21:38.899Z,0.90
2018-12-25T20:24:37.636Z,1.20
2018-12-25T20:27:49.964Z,1.30
2018-12-25T20:31:24.048Z,1.20
2018-12-25T20:34:18.076Z,1.20
2018-12-25T20:37:22.184Z,1.40
2018-12-25T20:40:30.779Z,1.50
2018-12-25T20:43:34.913Z,1.60
2018-12-25T20:46:42.533Z,1.60
2018-12-25T20:49:47.823Z,1.80
2018-12-25T20:52:51.067Z,1.80
2018-12-25T20:55:56.204Z,1.80
2018-12-25T20:59:11.659Z,1.70
2018-12-25T21:02:35.628Z,1.70
2018-12-25T21:05:47.865Z,1.70
2018-12-25T21:09:11.635Z,1.70
2018-12-25T21:12:20.226Z,1.70
2018-12-25T21:15:37.766Z,1.60
2018-12-25T21:19:08.395Z,1.50
2018-12-25T21:22:06.291Z,1.60
2018-12-25T21:25:10.572Z,1.50
2018-12-25T21:27:36.943Z,1.50
2018-12-25T21:30:10.336Z,1.50
2018-12-25T21:32:40.223Z,1.50
2018-12-25T21:35:33.390Z,1.50
2018-12-25T21:38:00.796Z,1.40
2018-12-25T21:40:28.345Z,1.40
2018-12-25T21:42:56.493Z,1.40
2018-12-25T21:45:23.872Z,1.40
2018-12-25T21:47:51.351Z,1.30
2018-12-25T21:50:18.612Z,1.30
2018-12-25T21:52:45.965Z,1.30
2018-12-25T21:55:18.534Z,1.20
2018-12-25T21:57:42.826Z,1.30
2018-12-25T22:00:13.435Z,1.30
2018-12-25T22:02:41.303Z,1.30
2018-12-25T22:05:08.792Z,1.20
2018-12-25T22:07:36.053Z,1.20
2018-12-25T22:10:03.963Z,1.30
2018-12-25T22:12:31.337Z,1.20
2018-12-25T22:14:58.664Z,1.20
2018-12-25T22:17:25.878Z,1.20
2018-12-25T22:19:53.288Z,1.20
2018-12-25T22:22:20.625Z,1.20
2018-12-25T22:24:47.976Z,1.20
2018-12-25T22:27:15.243Z,1.10
2018-12-25T22:29:42.671Z,1.10
2018-12-25T22:32:10.009Z,1.00
2018-12-25T22:34:37.567Z,1.00
2018-12-25T22:37:04.823Z,0.90
2018-12-25T22:39:32.068Z,0.80
2018-12-25T22:41:59.345Z,0.70
2018-12-25T22:44:26.670Z,0.60
2018-12-25T22:46:54.325Z,0.50
2018-12-25T22:49:21.686Z,0.40
2018-12-25T22:51:49.044Z,0.50
2018-12-25T22:54:16.500Z,0.50
2018-12-25T22:56:43.728Z,0.50
2018-12-25T22:59:11.045Z,0.60
2018-12-25T23:01:38.420Z,0.60
2018-12-25T23:04:05.840Z,0.70
2018-12-25T23:06:33.148Z,0.70
2018-12-25T23:09:00.490Z,0.60
2018-12-25T23:11:27.888Z,0.70
2018-12-25T23:13:55.129Z,0.50
2018-12-25T23:16:22.497Z,0.40
2018-12-25T23:18:49.744Z,0.30
2018-12-25T23:21:17.092Z,0.20
2018-12-25T23:23:44.363Z,0.20
2018-12-25T23:26:11.693Z,0.10
2018-12-25T23:28:39.135Z,0.20
2018-12-25T23:31:06.523Z,0.20
2018-12-25T23:33:34.120Z,0.10
2018-12-25T23:36:01.459Z,0.10
2018-12-25T23:38:28.682Z,0.20
2018-12-25T23:40:55.976Z,0.60
2018-12-25T23:43:23.324Z,0.70
2018-12-25T23:45:50.549Z,0.70
2018-12-25T23:48:17.924Z,0.80
2018-12-25T23:50:45.352Z,0.80
2018-12-25T23:53:12.648Z,0.80
2018-12-25T23:55:39.970Z,0.80
2018-12-25T23:58:07.301Z,0.90
